createdAt,value
2023-01-25T00:02:26.897Z,11.47
2023-01-25T00:05:13.647Z,10.53
2023-01-25T00:08:01.799Z,11.20
2023-01-25T00:10:52.445Z,12.20
2023-01-25T00:13:39.207Z,12.07
2023-01-25T00:16:25.998Z,11.87
2023-01-25T00:19:13.235Z,12.13
2023-01-25T00:21:59.955Z,11.80
2023-01-25T00:24:48.326Z,11.00
2023-01-25T00:27:35.221Z,10.93
2023-01-25T00:30:22.213Z,11.50
2023-01-25T00:33:44.819Z,12.17
2023-01-25T00:36:41.177Z,11.33
2023-01-25T00:39:30.853Z,12.70
2023-01-25T00:42:20.611Z,11.97
2023-01-25T00:45:08.721Z,11.37
2023-01-25T00:47:56.387Z,10.60
2023-01-25T00:50:43.315Z,12.03
2023-01-25T00:53:30.044Z,11.17
2023-01-25T00:56:16.853Z,12.20
2023-01-25T00:59:05.065Z,10.80
2023-01-25T01:01:53.534Z,11.53
2023-01-25T01:04:40.297Z,11.23
2023-01-25T01:07:29.076Z,11.67
2023-01-25T01:10:16.035Z,11.50
2023-01-25T01:13:02.919Z,11.60
2023-01-25T01:15:51.986Z,10.83
2023-01-25T01:18:40.928Z,11.00
2023-01-25T01:21:28.283Z,11.50
2023-01-25T01:24:18.113Z,9.97
2023-01-25T01:27:04.762Z,10.53
2023-01-25T01:29:51.460Z,9.90
2023-01-25T01:32:40.161Z,11.07
2023-01-25T01:35:26.841Z,10.50
2023-01-25T01:38:13.717Z,11.07
2023-01-25T01:41:00.515Z,11.27
2023-01-25T01:43:47.728Z,10.93
2023-01-25T01:46:37.658Z,10.13
2023-01-25T01:49:33.120Z,9.43
2023-01-25T01:52:32.184Z,9.33
2023-01-25T01:55:24.322Z,9.23
2023-01-25T01:58:12.389Z,9.77
2023-01-25T02:00:59.513Z,9.77
2023-01-25T02:03:46.066Z,9.30
2023-01-25T02:06:43.968Z,9.20
2023-01-25T02:09:34.721Z,10.43
2023-01-25T02:12:24.295Z,9.23
2023-01-25T02:15:12.149Z,9.50
2023-01-25T02:17:59.893Z,8.67
2023-01-25T02:20:49.668Z,8.87
2023-01-25T02:23:43.901Z,8.13
2023-01-25T02:26:32.431Z,9.97
2023-01-25T02:29:23.727Z,9.87
2023-01-25T02:32:12.086Z,10.20
2023-01-25T02:34:58.701Z,8.30
2023-01-25T02:37:45.743Z,9.07
2023-01-25T02:40:37.803Z,9.47
2023-01-25T02:43:30.421Z,9.93
2023-01-25T02:46:23.689Z,9.07
2023-01-25T02:49:10.910Z,8.67
2023-01-25T02:51:58.181Z,9.30
2023-01-25T02:54:45.831Z,9.27
2023-01-25T02:57:32.714Z,8.60
2023-01-25T03:00:21.860Z,10.10
2023-01-25T03:03:08.265Z,8.77
2023-01-25T03:05:55.130Z,8.83
2023-01-25T03:08:41.950Z,9.17
2023-01-25T03:11:28.669Z,9.57
2023-01-25T03:14:16.844Z,9.30
2023-01-25T03:17:05.405Z,9.07
2023-01-25T03:19:54.019Z,8.93
2023-01-25T03:22:42.020Z,8.20
2023-01-25T03:25:29.256Z,8.80
2023-01-25T03:28:27.095Z,8.43
2023-01-25T03:31:16.086Z,8.63
2023-01-25T03:34:04.394Z,9.37
2023-01-25T03:36:55.384Z,9.90
2023-01-25T03:39:42.178Z,8.20
2023-01-25T03:42:28.947Z,7.97
2023-01-25T03:45:17.767Z,9.60
2023-01-25T03:48:05.187Z,8.83
2023-01-25T03:50:55.019Z,8.07
2023-01-25T03:53:41.341Z,8.93
2023-01-25T03:56:35.245Z,8.33
2023-01-25T03:59:37.411Z,8.93
2023-01-25T04:02:24.371Z,8.70
2023-01-25T04:05:11.214Z,7.63
2023-01-25T04:07:59.599Z,8.13
2023-01-25T04:10:58.935Z,8.80
2023-01-25T04:13:45.575Z,9.13
2023-01-25T04:16:36.221Z,8.53
2023-01-25T04:19:40.877Z,8.70
2023-01-25T04:22:31.136Z,9.40
2023-01-25T04:25:20.470Z,9.20
2023-01-25T04:28:11.855Z,8.17
2023-01-25T04:30:59.871Z,8.67
2023-01-25T04:33:53.024Z,8.10
2023-01-25T04:36:40.171Z,8.27
2023-01-25T04:39:27.500Z,9.10
2023-01-25T04:42:15.747Z,9.50
2023-01-25T04:45:05.860Z,8.93
2023-01-25T04:47:57.430Z,8.37
2023-01-25T04:50:44.931Z,8.80
2023-01-25T04:53:32.965Z,10.00
2023-01-25T04:56:21.279Z,10.03
2023-01-25T04:59:14.759Z,8.67
2023-01-25T05:02:02.672Z,8.77
2023-01-25T05:04:49.494Z,8.57
2023-01-25T05:07:38.654Z,7.33
2023-01-25T05:10:25.246Z,8.80
2023-01-25T05:13:47.363Z,7.93
2023-01-25T05:16:42.025Z,9.70
2023-01-25T05:19:28.432Z,8.40
2023-01-25T05:22:21.098Z,8.73
2023-01-25T05:25:31.829Z,10.23
2023-01-25T05:28:18.968Z,8.77
2023-01-25T05:31:32.218Z,9.90
2023-01-25T05:34:20.239Z,10.50
2023-01-25T05:37:09.397Z,9.70
2023-01-25T05:40:01.163Z,8.67
2023-01-25T05:42:54.854Z,8.67
2023-01-25T05:45:43.530Z,9.10
2023-01-25T05:48:31.231Z,9.97
2023-01-25T05:51:20.129Z,9.57
2023-01-25T05:54:08.821Z,9.57
2023-01-25T05:56:55.652Z,9.53
2023-01-25T05:59:43.078Z,9.53
2023-01-25T06:02:32.556Z,8.37
2023-01-25T06:05:19.332Z,9.33
2023-01-25T06:08:07.564Z,8.67
2023-01-25T06:11:08.488Z,8.53
2023-01-25T06:13:56.504Z,9.37
2023-01-25T06:16:43.513Z,9.63
2023-01-25T06:19:58.609Z,8.63
2023-01-25T06:22:56.004Z,9.00
2023-01-25T06:25:44.324Z,10.07
2023-01-25T06:28:32.135Z,10.50
2023-01-25T06:31:19.745Z,9.63
2023-01-25T06:34:08.203Z,9.60
2023-01-25T06:36:55.183Z,10.40
2023-01-25T06:39:41.974Z,9.80
2023-01-25T06:42:30.188Z,10.00
2023-01-25T06:45:17.159Z,10.37
2023-01-25T06:48:03.761Z,10.57
2023-01-25T06:50:57.939Z,9.90
2023-01-25T06:53:46.029Z,11.23
2023-01-25T06:56:33.431Z,10.07
2023-01-25T06:59:21.359Z,10.57
2023-01-25T07:02:08.316Z,11.60
2023-01-25T07:04:55.127Z,10.37
2023-01-25T07:07:41.698Z,9.97
2023-01-25T07:10:28.483Z,9.97
2023-01-25T07:13:15.433Z,11.57
2023-01-25T07:16:05.348Z,11.60
2023-01-25T07:18:51.743Z,11.20
2023-01-25T07:21:38.671Z,11.23
2023-01-25T07:24:27.372Z,11.10
2023-01-25T07:27:13.987Z,10.27
2023-01-25T07:30:00.806Z,11.53
2023-01-25T07:32:49.030Z,11.50
2023-01-25T07:35:36.601Z,10.43
2023-01-25T07:38:23.259Z,10.60
2023-01-25T07:41:10.136Z,10.47
2023-01-25T07:43:57.523Z,11.47
2023-01-25T07:46:55.209Z,11.47
2023-01-25T07:49:43.419Z,11.27
2023-01-25T07:52:29.801Z,10.80
2023-01-25T07:55:16.726Z,10.83
2023-01-25T07:58:03.330Z,11.60
2023-01-25T08:00:50.128Z,12.47
2023-01-25T08:03:37.448Z,13.77
2023-01-25T08:06:30.742Z,12.23
2023-01-25T08:09:20.130Z,12.03
2023-01-25T08:12:08.784Z,10.13
2023-01-25T08:14:55.577Z,11.03
2023-01-25T08:17:42.313Z,10.57
2023-01-25T08:20:29.099Z,11.63
2023-01-25T08:23:17.360Z,10.53
2023-01-25T08:26:08.820Z,12.40
2023-01-25T08:28:58.200Z,10.43
2023-01-25T08:31:45.659Z,10.90
2023-01-25T08:34:34.849Z,11.93
2023-01-25T08:37:22.208Z,10.53
2023-01-25T08:40:19.284Z,11.17
2023-01-25T08:43:06.148Z,10.63
2023-01-25T08:45:57.851Z,10.97
2023-01-25T08:48:44.607Z,9.73
2023-01-25T08:51:32.655Z,10.60
2023-01-25T08:54:19.586Z,9.63
2023-01-25T08:57:07.790Z,11.00
2023-01-25T08:59:54.227Z,11.03
2023-01-25T09:02:41.131Z,9.67
2023-01-25T09:05:29.577Z,10.80
2023-01-25T09:08:16.308Z,10.30
2023-01-25T09:11:03.522Z,10.37
2023-01-25T09:13:52.073Z,11.83
2023-01-25T09:16:39.037Z,10.90
2023-01-25T09:19:25.817Z,12.37
2023-01-25T09:22:12.556Z,11.07
2023-01-25T09:24:59.406Z,12.63
2023-01-25T09:27:46.227Z,11.43
2023-01-25T09:30:46.166Z,11.67
2023-01-25T09:33:43.107Z,11.77
2023-01-25T09:36:29.766Z,10.47
2023-01-25T09:39:16.496Z,10.17
2023-01-25T09:42:27.470Z,10.23
2023-01-25T09:45:24.506Z,10.97
2023-01-25T09:48:22.026Z,9.77
2023-01-25T09:51:22.043Z,10.17
2023-01-25T09:54:11.113Z,12.97
2023-01-25T09:56:59.547Z,12.30
2023-01-25T09:59:48.450Z,11.60
2023-01-25T10:02:41.682Z,11.33
2023-01-25T10:05:34.055Z,10.90
2023-01-25T10:08:28.263Z,11.73
2023-01-25T10:11:22.374Z,10.73
2023-01-25T10:14:14.879Z,9.37
2023-01-25T10:17:09.436Z,10.97
2023-01-25T10:20:10.436Z,10.90
2023-01-25T10:23:15.590Z,9.77
2023-01-25T10:26:08.493Z,10.73
2023-01-25T10:29:04.352Z,10.83
2023-01-25T10:31:53.646Z,10.30
2023-01-25T10:34:55.930Z,9.53
2023-01-25T10:37:44.502Z,11.53
2023-01-25T10:40:41.053Z,11.10
2023-01-25T10:43:28.028Z,10.93
2023-01-25T10:46:21.083Z,8.67
2023-01-25T10:49:23.189Z,10.73
2023-01-25T10:52:18.310Z,8.60
2023-01-25T10:55:14.796Z,10.60
2023-01-25T10:58:02.931Z,8.87
2023-01-25T11:00:53.482Z,11.93
2023-01-25T11:03:42.378Z,10.93
2023-01-25T11:06:37.192Z,11.53
2023-01-25T11:09:35.635Z,12.07
2023-01-25T11:12:22.901Z,11.80
2023-01-25T11:15:26.545Z,11.50
2023-01-25T11:18:17.282Z,11.23
2023-01-25T11:21:12.071Z,11.50
2023-01-25T11:24:01.221Z,12.43
2023-01-25T11:26:48.056Z,10.23
2023-01-25T11:29:34.469Z,11.10
2023-01-25T11:32:26.047Z,11.27
2023-01-25T11:35:15.021Z,11.53
2023-01-25T11:38:13.731Z,10.20
2023-01-25T11:41:11.195Z,11.60
2023-01-25T11:44:21.121Z,12.70
2023-01-25T11:47:23.459Z,12.53
2023-01-25T11:50:17.462Z,10.07
2023-01-25T11:53:27.924Z,13.20
2023-01-25T11:56:24.064Z,11.17
2023-01-25T11:59:23.780Z,11.70
2023-01-25T12:02:32.994Z,10.33
2023-01-25T12:05:45.649Z,10.83
2023-01-25T12:08:54.345Z,12.37
2023-01-25T12:12:00.900Z,11.43
2023-01-25T12:15:04.095Z,12.60
2023-01-25T12:18:15.026Z,11.73
2023-01-25T12:21:17.416Z,11.47
2023-01-25T12:24:23.820Z,11.17
2023-01-25T12:27:25.764Z,12.40
2023-01-25T12:30:22.654Z,12.90
2023-01-25T12:33:16.323Z,11.23
2023-01-25T12:36:09.454Z,12.23
2023-01-25T12:39:00.541Z,12.57
2023-01-25T12:41:52.071Z,12.20
2023-01-25T12:44:41.907Z,11.97
2023-01-25T12:47:36.368Z,11.47
2023-01-25T12:50:28.773Z,11.90
2023-01-25T12:53:22.108Z,11.33
2023-01-25T12:56:13.738Z,11.20
2023-01-25T12:59:09.871Z,12.97
2023-01-25T13:02:03.867Z,12.80
2023-01-25T13:05:02.616Z,12.67
2023-01-25T13:07:57.904Z,10.80
2023-01-25T13:10:51.201Z,12.17
2023-01-25T13:13:38.000Z,12.77
2023-01-25T13:16:43.326Z,12.23
2023-01-25T13:19:42.240Z,12.17
2023-01-25T13:22:59.721Z,11.87
2023-01-25T13:25:49.653Z,13.13
2023-01-25T13:28:45.746Z,12.30
2023-01-25T13:31:51.905Z,12.70
2023-01-25T13:34:59.796Z,13.63
2023-01-25T13:37:46.518Z,13.23
2023-01-25T13:40:36.004Z,12.67
2023-01-25T13:43:24.030Z,12.90
2023-01-25T13:46:15.353Z,12.33
2023-01-25T13:49:05.954Z,13.77
2023-01-25T13:51:53.621Z,12.20
2023-01-25T13:54:44.448Z,11.70
2023-01-25T13:57:32.524Z,12.10
2023-01-25T14:00:22.313Z,12.07
2023-01-25T14:03:09.759Z,12.90
2023-01-25T14:05:58.969Z,12.53
2023-01-25T14:08:47.373Z,13.47
2023-01-25T14:11:36.643Z,11.93
2023-01-25T14:14:27.944Z,12.23
2023-01-25T14:17:21.369Z,13.90
2023-01-25T14:20:19.618Z,14.03
2023-01-25T14:23:07.859Z,13.33
2023-01-25T14:25:59.288Z,14.87
2023-01-25T14:28:59.204Z,13.30
2023-01-25T14:31:53.317Z,13.90
2023-01-25T14:34:42.872Z,13.97
2023-01-25T14:37:31.263Z,12.87
2023-01-25T14:40:23.650Z,12.10
2023-01-25T14:43:11.630Z,11.10
2023-01-25T14:45:59.889Z,13.97
2023-01-25T14:48:48.490Z,13.43
2023-01-25T14:51:42.261Z,12.90
2023-01-25T14:54:31.537Z,13.63
2023-01-25T14:57:33.137Z,13.57
2023-01-25T15:00:23.123Z,12.73
2023-01-25T15:03:17.971Z,12.47
2023-01-25T15:06:06.172Z,13.87
2023-01-25T15:08:54.393Z,14.10
2023-01-25T15:11:46.402Z,14.83
2023-01-25T15:14:33.318Z,13.30
2023-01-25T15:17:41.463Z,14.00
2023-01-25T15:20:36.980Z,13.97
2023-01-25T15:23:25.443Z,14.50
2023-01-25T15:26:21.220Z,13.90
2023-01-25T15:29:14.591Z,14.57
2023-01-25T15:32:01.419Z,15.60
2023-01-25T15:34:48.817Z,15.53
2023-01-25T15:37:35.402Z,13.27
2023-01-25T15:40:23.065Z,14.63
2023-01-25T15:43:13.882Z,15.40
2023-01-25T15:46:01.919Z,14.93
2023-01-25T15:48:50.350Z,14.47
2023-01-25T15:51:37.237Z,14.93
2023-01-25T15:54:24.590Z,14.80
2023-01-25T15:57:21.762Z,14.87
2023-01-25T16:00:17.090Z,15.40
2023-01-25T16:03:04.019Z,15.80
2023-01-25T16:05:55.146Z,15.77
2023-01-25T16:08:41.885Z,13.70
2023-01-25T16:11:29.098Z,15.70
2023-01-25T16:14:15.756Z,13.50
2023-01-25T16:17:05.827Z,13.93
2023-01-25T16:19:52.720Z,15.30
2023-01-25T16:22:39.552Z,14.50
2023-01-25T16:25:26.299Z,14.17
2023-01-25T16:28:15.683Z,14.33
2023-01-25T16:31:02.624Z,14.23
2023-01-25T16:33:51.081Z,13.37
2023-01-25T16:36:39.515Z,13.03
2023-01-25T16:39:28.505Z,12.93
2023-01-25T16:42:15.536Z,15.30
2023-01-25T16:45:02.230Z,13.10
2023-01-25T16:47:49.641Z,13.63
2023-01-25T16:50:37.594Z,12.93
2023-01-25T16:53:24.507Z,14.73
2023-01-25T16:56:17.224Z,12.57
2023-01-25T16:59:06.125Z,13.33
2023-01-25T17:01:53.305Z,12.30
2023-01-25T17:04:40.131Z,13.57
2023-01-25T17:07:28.254Z,13.10
2023-01-25T17:10:15.109Z,12.13
2023-01-25T17:13:01.974Z,12.50
2023-01-25T17:15:48.723Z,12.90
2023-01-25T17:18:35.473Z,13.17
2023-01-25T17:21:22.710Z,12.53
2023-01-25T17:24:14.403Z,12.43
2023-01-25T17:27:01.584Z,11.97
2023-01-25T17:29:48.274Z,13.23
2023-01-25T17:32:34.938Z,13.03
2023-01-25T17:35:21.755Z,11.77
2023-01-25T17:38:09.191Z,12.07
2023-01-25T17:40:57.216Z,11.13
2023-01-25T17:43:44.275Z,10.40
2023-01-25T17:46:33.420Z,11.30
2023-01-25T17:49:22.515Z,10.00
2023-01-25T17:52:09.438Z,11.10
2023-01-25T17:54:56.271Z,10.37
2023-01-25T17:57:44.588Z,11.10
2023-01-25T18:00:31.505Z,9.40
2023-01-25T18:03:18.157Z,11.13
2023-01-25T18:06:09.178Z,11.57
2023-01-25T18:09:00.036Z,11.00
2023-01-25T18:11:46.502Z,10.23
2023-01-25T18:14:36.136Z,11.43
2023-01-25T18:17:22.830Z,11.53
2023-01-25T18:20:11.869Z,10.13
2023-01-25T18:22:58.498Z,10.60
2023-01-25T18:25:45.449Z,9.90
2023-01-25T18:28:32.296Z,9.67
2023-01-25T18:31:20.789Z,11.07
2023-01-25T18:34:07.295Z,9.70
2023-01-25T18:36:58.383Z,10.13
2023-01-25T18:39:45.037Z,9.30
2023-01-25T18:42:31.856Z,8.50
2023-01-25T18:45:18.684Z,10.27
2023-01-25T18:48:07.570Z,11.00
2023-01-25T18:50:54.195Z,10.03
2023-01-25T18:53:43.568Z,10.80
2023-01-25T18:56:31.738Z,9.77
2023-01-25T18:59:18.074Z,10.27
2023-01-25T19:02:05.759Z,9.30
2023-01-25T19:04:53.800Z,9.67
2023-01-25T19:07:40.253Z,11.03
2023-01-25T19:10:27.228Z,10.40
2023-01-25T19:13:14.080Z,10.00
2023-01-25T19:16:02.447Z,9.10
2023-01-25T19:18:52.833Z,9.30
2023-01-25T19:21:41.923Z,9.73
2023-01-25T19:24:28.932Z,9.37
2023-01-25T19:27:15.430Z,9.53
2023-01-25T19:30:02.116Z,7.90
2023-01-25T19:32:49.003Z,9.03
2023-01-25T19:35:35.825Z,9.03
2023-01-25T19:38:23.877Z,8.57
2023-01-25T19:41:13.618Z,9.80
2023-01-25T19:44:01.802Z,8.37
2023-01-25T19:46:49.481Z,8.63
2023-01-25T19:49:36.366Z,8.63
2023-01-25T19:52:23.164Z,7.90
2023-01-25T19:55:11.749Z,6.40
2023-01-25T19:57:58.516Z,8.33
2023-01-25T20:00:45.191Z,7.00
2023-01-25T20:03:32.213Z,6.20
2023-01-25T20:06:20.384Z,7.77
2023-01-25T20:09:07.242Z,7.07
2023-01-25T20:11:57.737Z,8.63
2023-01-25T20:14:44.505Z,7.13
2023-01-25T20:17:31.241Z,7.80
2023-01-25T20:20:18.143Z,8.23
2023-01-25T20:23:04.773Z,7.67
2023-01-25T20:25:59.047Z,6.73
2023-01-25T20:28:51.625Z,7.13
2023-01-25T20:31:41.215Z,7.60
2023-01-25T20:34:27.918Z,7.37
2023-01-25T20:37:14.428Z,7.60
2023-01-25T20:40:01.407Z,6.87
2023-01-25T20:42:47.855Z,8.13
2023-01-25T20:45:38.314Z,7.70
2023-01-25T20:48:25.584Z,6.97
2023-01-25T20:51:14.065Z,8.30
2023-01-25T20:54:01.220Z,7.37
2023-01-25T20:56:48.645Z,6.13
2023-01-25T20:59:35.579Z,6.53
2023-01-25T21:02:25.018Z,6.27
2023-01-25T21:05:12.045Z,6.77
2023-01-25T21:07:59.069Z,6.93
2023-01-25T21:10:50.823Z,6.30
2023-01-25T21:13:37.376Z,6.90
2023-01-25T21:16:24.916Z,6.27
2023-01-25T21:19:12.711Z,6.80
2023-01-25T21:21:59.543Z,5.80
2023-01-25T21:24:46.344Z,6.60
2023-01-25T21:27:33.067Z,5.50
2023-01-25T21:30:22.470Z,5.97
2023-01-25T21:33:10.486Z,6.13
2023-01-25T21:36:02.579Z,6.10
2023-01-25T21:38:50.915Z,6.73
2023-01-25T21:41:38.658Z,5.53
2023-01-25T21:44:42.709Z,7.23
2023-01-25T21:47:31.473Z,5.90
2023-01-25T21:50:35.554Z,5.53
2023-01-25T21:53:23.987Z,6.30
2023-01-25T21:56:10.530Z,5.33
2023-01-25T21:58:57.779Z,5.90
2023-01-25T22:01:44.895Z,5.63
2023-01-25T22:04:35.934Z,5.73
2023-01-25T22:07:22.328Z,6.17
2023-01-25T22:10:12.172Z,5.80
2023-01-25T22:12:59.275Z,5.80
2023-01-25T22:15:46.016Z,5.60
2023-01-25T22:18:35.724Z,5.60
2023-01-25T22:21:24.199Z,5.30
2023-01-25T22:24:12.250Z,5.67
2023-01-25T22:27:37.601Z,5.70
2023-01-25T22:30:24.594Z,6.20
2023-01-25T22:33:10.976Z,5.93
2023-01-25T22:35:57.873Z,5.50
2023-01-25T22:38:44.749Z,5.53
2023-01-25T22:41:33.585Z,4.53
2023-01-25T22:44:22.665Z,5.27
2023-01-25T22:47:09.356Z,5.50
2023-01-25T22:49:56.206Z,5.67
2023-01-25T22:52:42.948Z,4.53
2023-01-25T22:55:30.939Z,4.83
2023-01-25T22:58:17.491Z,5.60
2023-01-25T23:01:09.693Z,4.80
2023-01-25T23:03:57.077Z,5.13
2023-01-25T23:06:43.795Z,4.93
2023-01-25T23:09:30.727Z,4.87
2023-01-25T23:12:17.662Z,5.07
2023-01-25T23:15:07.230Z,3.80
2023-01-25T23:18:12.969Z,5.53
2023-01-25T23:21:03.481Z,4.83
2023-01-25T23:23:50.519Z,4.63
2023-01-25T23:26:39.167Z,4.37
2023-01-25T23:29:25.838Z,4.13
2023-01-25T23:32:12.638Z,4.63
2023-01-25T23:35:00.767Z,4.83
2023-01-25T23:37:48.604Z,4.03
2023-01-25T23:40:35.283Z,4.87
2023-01-25T23:43:22.264Z,4.43
2023-01-25T23:46:09.407Z,4.30
2023-01-25T23:48:56.335Z,4.50
2023-01-25T23:51:44.182Z,4.10
2023-01-25T23:54:30.935Z,5.07
2023-01-25T23:57:17.499Z,5.63
